Terminal Aerodrome Forecast
Issued by NWS

Home | Current Version | Previous Version | Text Only | Print | Product List | Glossary On
Versions: 1 2 3 4 5 6 7 8 9 10 11 12
000
FTUS42 TJSJ 281735
TAFIST
TAF
TIST 281735Z 2818/2918 11015KT P6SM FEW030 SCT040
     FM282300 08008KT P6SM VCSH SCT025 SCT050
     FM291300 11015KT P6SM VCTS SCT030CB BKN040=

USA.gov is the U.S. government's official web portal to all federal, state and local government web resources and services.